createdAt,value
2017-05-18T00:01:09.809Z,16.30
2017-05-18T00:03:39.213Z,16.10
2017-05-18T00:06:08.644Z,16.20
2017-05-18T00:08:38.777Z,16.20
2017-05-18T00:11:08.199Z,16.20
2017-05-18T00:13:37.600Z,16.20
2017-05-18T00:16:07.144Z,16.10
2017-05-18T00:18:36.536Z,16.10
2017-05-18T00:21:05.945Z,16.00
2017-05-18T00:23:35.371Z,16.00
2017-05-18T00:26:04.761Z,15.90
2017-05-18T00:28:34.213Z,15.80
2017-05-18T00:31:03.613Z,15.80
2017-05-18T00:33:33.065Z,15.80
2017-05-18T00:36:02.455Z,15.80
2017-05-18T00:38:31.907Z,15.80
2017-05-18T00:41:01.305Z,15.80
2017-05-18T00:43:31.478Z,15.70
2017-05-18T00:46:00.867Z,15.70
2017-05-18T00:48:30.291Z,15.70
2017-05-18T00:50:59.689Z,15.70
2017-05-18T00:53:29.131Z,15.60
2017-05-18T00:55:59.270Z,15.60
2017-05-18T00:58:28.692Z,15.50
2017-05-18T01:00:58.112Z,15.50
2017-05-18T01:03:27.539Z,15.50
2017-05-18T01:05:56.932Z,15.50
2017-05-18T01:08:26.404Z,15.40
2017-05-18T01:10:55.805Z,15.20
2017-05-18T01:13:25.277Z,15.20
2017-05-18T01:15:54.681Z,15.10
2017-05-18T01:18:24.113Z,15.10
2017-05-18T01:20:53.524Z,15.10
2017-05-18T01:23:22.961Z,15.10
2017-05-18T01:25:52.361Z,15.00
2017-05-18T01:28:21.780Z,14.90
2017-05-18T01:30:51.919Z,14.90
2017-05-18T01:33:21.346Z,15.00
2017-05-18T01:35:50.049Z,15.00
2017-05-18T01:38:19.478Z,15.00
2017-05-18T01:40:48.878Z,15.00
2017-05-18T01:43:18.319Z,14.90
2017-05-18T01:45:47.715Z,14.90
2017-05-18T01:48:17.154Z,14.90
2017-05-18T01:50:46.546Z,14.80
2017-05-18T01:53:15.969Z,14.90
2017-05-18T01:55:45.364Z,14.90
2017-05-18T01:58:14.789Z,14.90
2017-05-18T02:00:44.180Z,15.00
2017-05-18T02:03:13.596Z,15.10
2017-05-18T02:05:43.017Z,15.10
2017-05-18T02:08:13.196Z,14.90
2017-05-18T02:10:42.593Z,14.90
2017-05-18T02:13:12.018Z,14.90
2017-05-18T02:15:41.457Z,14.90
2017-05-18T02:18:10.848Z,14.90
2017-05-18T02:20:41.017Z,14.90
2017-05-18T02:23:10.409Z,14.90
2017-05-18T02:25:39.826Z,14.90
2017-05-18T02:28:09.220Z,14.90
2017-05-18T02:30:38.648Z,14.90
2017-05-18T02:33:08.037Z,14.90
2017-05-18T02:35:37.463Z,15.00
2017-05-18T02:38:06.865Z,15.00
2017-05-18T02:40:36.293Z,14.90
2017-05-18T02:43:05.685Z,14.80
2017-05-18T02:45:35.857Z,14.90
2017-05-18T02:48:05.257Z,14.90
2017-05-18T02:50:34.676Z,14.80
2017-05-18T02:53:04.068Z,14.80
2017-05-18T02:55:33.493Z,14.70
2017-05-18T02:58:02.885Z,14.80
2017-05-18T03:00:32.306Z,14.80
2017-05-18T03:03:01.696Z,14.60
2017-05-18T03:05:31.125Z,14.50
2017-05-18T03:08:01.257Z,14.40
2017-05-18T03:10:30.680Z,14.30
2017-05-18T03:13:00.069Z,14.50
2017-05-18T03:15:29.516Z,14.60
2017-05-18T03:17:59.185Z,14.60
2017-05-18T03:20:28.639Z,14.50
2017-05-18T03:22:58.037Z,14.50
2017-05-18T03:25:27.457Z,14.50
2017-05-18T03:27:57.592Z,14.50
2017-05-18T03:30:27.017Z,14.40
2017-05-18T03:32:56.427Z,14.50
2017-05-18T03:35:25.849Z,14.60
2017-05-18T03:37:55.246Z,14.60
2017-05-18T03:40:24.313Z,14.50
2017-05-18T03:42:53.745Z,14.50
2017-05-18T03:45:23.136Z,14.50
2017-05-18T03:47:52.556Z,14.40
2017-05-18T03:50:21.945Z,14.30
2017-05-18T03:52:51.365Z,14.20
2017-05-18T03:55:20.807Z,14.40
2017-05-18T03:57:50.191Z,14.40
2017-05-18T04:00:20.385Z,14.40
2017-05-18T04:02:49.771Z,14.50
2017-05-18T04:05:19.187Z,14.60
2017-05-18T04:07:48.581Z,14.70
2017-05-18T04:10:18.013Z,14.70
2017-05-18T04:12:47.406Z,14.80
2017-05-18T04:15:16.836Z,15.00
2017-05-18T04:17:46.968Z,15.30
2017-05-18T04:20:16.389Z,15.50
2017-05-18T04:22:45.781Z,15.70
2017-05-18T04:25:15.208Z,15.80
2017-05-18T04:27:44.606Z,16.10
2017-05-18T04:30:14.038Z,16.20
2017-05-18T04:32:43.439Z,16.30
2017-05-18T04:35:12.905Z,16.40
2017-05-18T04:37:42.296Z,16.50
2017-05-18T04:40:11.711Z,16.60
2017-05-18T04:42:41.109Z,16.60
2017-05-18T04:45:10.540Z,16.80
2017-05-18T04:47:39.938Z,16.90
2017-05-18T04:50:09.369Z,17.10
2017-05-18T04:52:38.805Z,17.10
2017-05-18T04:55:08.202Z,17.20
2017-05-18T04:57:37.613Z,17.30
2017-05-18T05:00:07.004Z,17.40
2017-05-18T05:02:36.440Z,17.50
2017-05-18T05:05:05.841Z,17.50
2017-05-18T05:07:35.278Z,17.50
2017-05-18T05:10:04.708Z,17.60
2017-05-18T05:12:34.097Z,17.60
2017-05-18T05:15:04.308Z,17.70
2017-05-18T05:17:33.697Z,17.70
2017-05-18T05:20:03.152Z,17.70
2017-05-18T05:22:32.549Z,17.90
2017-05-18T05:25:01.994Z,18.00
2017-05-18T05:27:31.452Z,18.10
2017-05-18T05:30:00.876Z,18.10
2017-05-18T05:32:30.261Z,18.10
2017-05-18T05:34:59.688Z,18.10
2017-05-18T05:37:29.088Z,18.00
2017-05-18T05:39:58.539Z,18.10
2017-05-18T05:42:28.672Z,18.10
2017-05-18T05:44:58.905Z,18.10
2017-05-18T05:47:28.297Z,18.20
2017-05-18T05:49:58.459Z,18.30
2017-05-18T05:52:27.882Z,18.50
2017-05-18T05:54:57.279Z,18.60
2017-05-18T05:57:26.693Z,18.70
2017-05-18T05:59:56.129Z,18.90
2017-05-18T06:02:25.528Z,18.90
2017-05-18T06:04:54.960Z,18.90
2017-05-18T06:07:24.355Z,18.80
2017-05-18T06:09:53.781Z,18.80
2017-05-18T06:12:23.229Z,18.80
2017-05-18T06:14:53.426Z,18.80
2017-05-18T06:17:22.820Z,18.80
2017-05-18T06:19:52.244Z,18.70
2017-05-18T06:22:21.677Z,18.80
2017-05-18T06:24:51.114Z,18.70
2017-05-18T06:27:20.562Z,18.60
2017-05-18T06:29:49.961Z,18.60
2017-05-18T06:32:20.137Z,18.60
2017-05-18T06:34:49.532Z,18.70
2017-05-18T06:37:18.970Z,18.70
2017-05-18T06:39:48.365Z,18.80
2017-05-18T06:42:17.786Z,18.80
2017-05-18T06:44:47.264Z,18.80
2017-05-18T06:47:16.662Z,18.80
2017-05-18T06:49:46.081Z,18.80
2017-05-18T06:52:15.513Z,18.70
2017-05-18T06:54:45.647Z,18.80
2017-05-18T06:57:15.095Z,18.90
2017-05-18T06:59:44.498Z,19.00
2017-05-18T07:02:13.925Z,19.10
2017-05-18T07:04:44.072Z,19.10
2017-05-18T07:07:13.496Z,19.20
2017-05-18T07:09:42.901Z,19.30
2017-05-18T07:12:12.325Z,19.40
2017-05-18T07:14:41.725Z,19.60
2017-05-18T07:17:11.157Z,19.60
2017-05-18T07:19:40.548Z,19.70
2017-05-18T07:22:09.973Z,19.70
2017-05-18T07:24:40.106Z,19.70
2017-05-18T07:27:09.534Z,19.70
2017-05-18T07:29:38.928Z,19.70
2017-05-18T07:32:08.343Z,19.80
2017-05-18T07:34:37.781Z,19.90
2017-05-18T07:37:07.171Z,20.10
2017-05-18T07:39:36.605Z,20.50
2017-05-18T07:42:06.738Z,20.60
2017-05-18T07:44:36.167Z,20.60
2017-05-18T07:47:05.618Z,20.60
2017-05-18T07:49:35.069Z,20.60
2017-05-18T07:52:04.472Z,20.40
2017-05-18T07:54:33.901Z,20.30
2017-05-18T07:57:03.347Z,20.20
2017-05-18T07:59:33.304Z,20.00
2017-05-18T08:02:02.732Z,20.00
2017-05-18T08:04:32.121Z,20.10
2017-05-18T08:07:01.553Z,20.10
2017-05-18T08:09:30.953Z,20.10
2017-05-18T08:12:00.429Z,20.30
2017-05-18T08:14:29.833Z,20.30
2017-05-18T08:16:59.260Z,20.50
2017-05-18T08:19:28.664Z,20.70
2017-05-18T08:21:58.104Z,20.90
2017-05-18T08:24:28.172Z,21.10
2017-05-18T08:26:57.610Z,21.30
2017-05-18T08:29:27.753Z,21.40
2017-05-18T08:31:57.191Z,21.50
2017-05-18T08:34:26.612Z,21.80
2017-05-18T08:36:56.004Z,22.30
2017-05-18T08:39:25.666Z,22.70
2017-05-18T08:41:55.073Z,23.10
2017-05-18T08:44:24.502Z,22.90
2017-05-18T08:46:53.905Z,22.80
2017-05-18T08:49:23.332Z,22.70
2017-05-18T08:51:53.814Z,22.40
2017-05-18T08:54:23.239Z,22.30
2017-05-18T08:56:52.641Z,22.40
2017-05-18T08:59:22.082Z,22.50
2017-05-18T09:01:52.215Z,22.80
2017-05-18T09:04:22.380Z,23.00
2017-05-18T09:06:51.778Z,23.10
2017-05-18T09:09:21.200Z,23.20
2017-05-18T09:11:50.596Z,23.30
2017-05-18T09:14:20.049Z,23.50
2017-05-18T09:16:49.452Z,23.60
2017-05-18T09:19:18.877Z,24.00
2017-05-18T09:21:48.267Z,24.40
2017-05-18T09:24:17.730Z,24.60
2017-05-18T09:26:47.124Z,24.60
2017-05-18T09:29:16.551Z,24.20
2017-05-18T09:31:46.686Z,24.20
2017-05-18T09:34:16.117Z,24.30
2017-05-18T09:36:45.504Z,24.50
2017-05-18T09:39:14.955Z,24.40
2017-05-18T09:41:44.353Z,24.30
2017-05-18T09:44:13.804Z,24.30
2017-05-18T09:46:43.201Z,24.20
2017-05-18T09:49:12.625Z,24.20
2017-05-18T09:51:42.069Z,24.00
2017-05-18T09:54:11.497Z,23.90
2017-05-18T09:56:41.633Z,23.70
2017-05-18T09:59:11.058Z,23.60
2017-05-18T10:01:40.476Z,23.70
2017-05-18T10:04:09.908Z,23.90
2017-05-18T10:06:39.301Z,24.10
2017-05-18T10:09:08.734Z,24.00
2017-05-18T10:11:38.127Z,24.10
2017-05-18T10:14:08.293Z,24.20
2017-05-18T10:16:37.710Z,24.80
2017-05-18T10:19:07.105Z,25.20
2017-05-18T10:21:36.540Z,25.40
2017-05-18T10:24:05.924Z,25.70
2017-05-18T10:26:35.171Z,26.40
2017-05-18T10:29:04.580Z,26.80
2017-05-18T10:31:34.000Z,27.10
2017-05-18T10:34:03.428Z,27.10
2017-05-18T10:36:32.926Z,27.30
2017-05-18T10:39:02.316Z,27.70
2017-05-18T10:41:31.749Z,28.20
2017-05-18T10:44:00.962Z,27.90
2017-05-18T10:46:30.248Z,28.40
2017-05-18T10:48:59.639Z,28.60
2017-05-18T10:51:29.061Z,28.90
2017-05-18T10:53:58.136Z,28.70
2017-05-18T10:56:27.189Z,29.20
2017-05-18T10:58:56.613Z,29.40
2017-05-18T11:01:26.044Z,29.50
2017-05-18T11:03:56.173Z,29.50
2017-05-18T11:06:25.596Z,29.40
2017-05-18T11:08:55.729Z,29.30
2017-05-18T11:11:25.169Z,29.20
2017-05-18T11:13:54.623Z,28.50
2017-05-18T11:16:23.740Z,28.70
2017-05-18T11:18:53.153Z,28.80
2017-05-18T11:21:22.573Z,28.70
2017-05-18T11:23:51.998Z,28.40
2017-05-18T11:26:21.437Z,28.40
2017-05-18T11:28:50.836Z,28.20
2017-05-18T11:31:20.267Z,27.80
2017-05-18T11:33:49.669Z,27.80
2017-05-18T11:36:19.115Z,27.60
2017-05-18T11:38:48.528Z,27.40
2017-05-18T11:41:17.993Z,27.50
2017-05-18T11:43:47.389Z,27.30
2017-05-18T11:46:16.815Z,26.90
2017-05-18T11:48:46.205Z,27.00
2017-05-18T11:51:15.676Z,27.10
2017-05-18T11:53:45.077Z,27.00
2017-05-18T11:56:14.501Z,27.10
2017-05-18T11:58:43.917Z,27.10
2017-05-18T12:01:13.341Z,27.00
2017-05-18T12:03:42.748Z,27.10
2017-05-18T12:06:12.170Z,27.20
2017-05-18T12:08:42.305Z,27.30
2017-05-18T12:11:11.736Z,27.60
2017-05-18T12:13:41.144Z,27.70
2017-05-18T12:16:10.561Z,27.80
2017-05-18T12:18:39.952Z,27.60
2017-05-18T12:21:09.368Z,27.50
2017-05-18T12:23:38.753Z,27.50
2017-05-18T12:26:08.170Z,27.40
2017-05-18T12:28:37.596Z,27.20
2017-05-18T12:31:07.777Z,27.00
2017-05-18T12:33:37.196Z,26.40
2017-05-18T12:36:06.623Z,26.20
2017-05-18T12:38:36.767Z,26.20
2017-05-18T12:41:05.844Z,26.20
2017-05-18T12:43:35.989Z,26.10
2017-05-18T12:46:05.426Z,26.10
2017-05-18T12:48:34.828Z,25.90
2017-05-18T12:51:04.257Z,25.90
2017-05-18T12:53:33.649Z,25.70
2017-05-18T12:56:03.072Z,25.50
2017-05-18T12:58:33.208Z,25.50
2017-05-18T13:01:02.640Z,25.30
2017-05-18T13:03:32.032Z,25.30
2017-05-18T13:06:01.461Z,25.20
2017-05-18T13:08:30.856Z,25.00
2017-05-18T13:11:00.877Z,24.90
2017-05-18T13:13:30.929Z,24.70
2017-05-18T13:16:01.109Z,24.60
2017-05-18T13:18:30.501Z,24.50
2017-05-18T13:20:59.929Z,24.40
2017-05-18T13:23:29.321Z,24.50
2017-05-18T13:26:00.277Z,24.40
2017-05-18T13:28:29.665Z,24.20
2017-05-18T13:30:59.097Z,24.10
2017-05-18T13:33:29.232Z,23.90
2017-05-18T13:35:59.400Z,23.70
2017-05-18T13:38:28.801Z,23.30
2017-05-18T13:40:58.232Z,23.10
2017-05-18T13:43:27.632Z,22.90
2017-05-18T13:45:57.066Z,22.60
2017-05-18T13:48:26.461Z,22.40
2017-05-18T13:50:56.645Z,22.40
2017-05-18T13:53:26.044Z,22.60
2017-05-18T13:55:55.479Z,22.50
2017-05-18T13:58:24.868Z,22.50
2017-05-18T14:00:54.326Z,22.50
2017-05-18T14:03:23.731Z,22.10
2017-05-18T14:05:53.172Z,21.60
2017-05-18T14:08:22.580Z,22.20
2017-05-18T14:10:52.020Z,22.40
2017-05-18T14:13:21.422Z,22.30
2017-05-18T14:15:50.855Z,22.70
2017-05-18T14:18:20.285Z,22.90
2017-05-18T14:20:49.679Z,21.80
2017-05-18T14:23:19.145Z,21.90
2017-05-18T14:25:48.539Z,21.50
2017-05-18T14:28:17.990Z,21.70
2017-05-18T14:30:47.383Z,21.70
2017-05-18T14:33:16.808Z,21.70
2017-05-18T14:35:46.200Z,21.90
2017-05-18T14:38:15.657Z,21.50
2017-05-18T14:40:45.051Z,21.50
2017-05-18T14:43:14.484Z,21.50
2017-05-18T14:45:43.888Z,20.60
2017-05-18T14:48:13.135Z,20.70
2017-05-18T14:50:43.277Z,20.50
2017-05-18T14:53:12.708Z,20.80
2017-05-18T14:55:42.104Z,20.80
2017-05-18T14:58:12.218Z,20.30
2017-05-18T15:00:41.607Z,20.10
2017-05-18T15:03:11.027Z,20.20
2017-05-18T15:05:40.437Z,20.60
2017-05-18T15:08:09.874Z,20.80
2017-05-18T15:10:39.284Z,20.80
2017-05-18T15:13:08.739Z,21.00
2017-05-18T15:15:38.151Z,21.00
2017-05-18T15:18:07.592Z,21.20
2017-05-18T15:20:37.732Z,21.20
2017-05-18T15:23:07.179Z,21.10
2017-05-18T15:25:36.605Z,20.90
2017-05-18T15:28:06.073Z,20.60
2017-05-18T15:30:35.488Z,20.30
2017-05-18T15:33:04.960Z,19.90
2017-05-18T15:35:34.394Z,19.60
2017-05-18T15:38:03.843Z,19.50
2017-05-18T15:40:33.259Z,19.30
2017-05-18T15:43:02.750Z,19.10
2017-05-18T15:45:32.932Z,19.10
2017-05-18T15:48:02.336Z,19.10
2017-05-18T15:50:31.770Z,19.20
2017-05-18T15:53:01.904Z,19.20
2017-05-18T15:55:31.361Z,19.00
2017-05-18T15:58:00.764Z,18.80
2017-05-18T16:00:30.457Z,18.60
2017-05-18T16:02:59.871Z,18.60
2017-05-18T16:05:29.305Z,18.30
2017-05-18T16:07:59.461Z,18.40
2017-05-18T16:10:28.926Z,18.20
2017-05-18T16:12:59.120Z,17.70
2017-05-18T16:15:28.552Z,17.20
2017-05-18T16:17:58.701Z,16.70
2017-05-18T16:20:28.140Z,16.90
2017-05-18T16:22:57.608Z,17.00
2017-05-18T16:25:27.024Z,16.90
2017-05-18T16:27:56.451Z,17.10
2017-05-18T16:30:25.880Z,16.80
2017-05-18T16:32:55.268Z,17.30
2017-05-18T16:35:24.693Z,17.40
2017-05-18T16:37:54.863Z,17.80
2017-05-18T16:40:24.948Z,18.10
2017-05-18T16:42:54.394Z,18.40
2017-05-18T16:45:23.811Z,18.60
2017-05-18T16:47:53.292Z,18.70
2017-05-18T16:50:22.709Z,18.80
2017-05-18T16:52:52.186Z,18.90
2017-05-18T16:55:21.589Z,19.00
2017-05-18T16:57:51.032Z,19.10
2017-05-18T17:00:20.451Z,19.00
2017-05-18T17:02:50.635Z,19.00
2017-05-18T17:05:20.042Z,19.00
2017-05-18T17:07:49.469Z,18.90
2017-05-18T17:10:18.909Z,18.80
2017-05-18T17:12:48.305Z,18.60
2017-05-18T17:15:17.732Z,18.50
2017-05-18T17:17:47.145Z,18.50
2017-05-18T17:20:16.637Z,17.90
2017-05-18T17:22:46.047Z,17.80
2017-05-18T17:25:15.480Z,18.00
2017-05-18T17:27:44.888Z,18.10
2017-05-18T17:30:14.320Z,18.40
2017-05-18T17:32:43.721Z,18.50
2017-05-18T17:35:13.161Z,18.40
2017-05-18T17:37:42.553Z,18.40
2017-05-18T17:40:11.977Z,18.40
2017-05-18T17:42:41.205Z,18.50
2017-05-18T17:45:10.657Z,18.30
2017-05-18T17:47:40.070Z,18.30
2017-05-18T17:50:09.545Z,18.20
2017-05-18T17:52:38.951Z,18.20
2017-05-18T17:55:08.395Z,18.20
2017-05-18T17:57:37.793Z,18.20
2017-05-18T18:00:07.227Z,18.30
2017-05-18T18:02:37.387Z,18.20
2017-05-18T18:05:06.831Z,17.90
2017-05-18T18:07:36.229Z,17.80
2017-05-18T18:10:06.337Z,17.90
2017-05-18T18:12:35.766Z,17.90
2017-05-18T18:15:05.193Z,17.80
2017-05-18T18:17:35.337Z,17.80
2017-05-18T18:20:04.818Z,17.80
2017-05-18T18:22:34.975Z,17.70
2017-05-18T18:25:04.374Z,17.60
2017-05-18T18:27:33.882Z,17.30
2017-05-18T18:30:03.284Z,17.20
2017-05-18T18:32:32.737Z,16.90
2017-05-18T18:35:02.888Z,16.80
2017-05-18T18:37:32.326Z,16.90
2017-05-18T18:40:01.745Z,16.80
2017-05-18T18:42:31.233Z,16.90
2017-05-18T18:45:00.662Z,16.70
2017-05-18T18:47:30.873Z,16.70
2017-05-18T18:50:00.292Z,16.60
2017-05-18T18:52:30.498Z,16.70
2017-05-18T18:54:59.889Z,16.70
2017-05-18T18:57:29.148Z,16.60
2017-05-18T18:59:58.381Z,16.70
2017-05-18T19:02:27.841Z,16.60
2017-05-18T19:04:57.235Z,16.60
2017-05-18T19:07:26.674Z,16.50
2017-05-18T19:09:56.091Z,16.50
2017-05-18T19:12:25.549Z,16.40
2017-05-18T19:14:55.141Z,16.50
2017-05-18T19:17:24.589Z,16.40
2017-05-18T19:19:53.990Z,16.00
2017-05-18T19:22:23.436Z,16.00
2017-05-18T19:24:53.390Z,15.80
2017-05-18T19:27:22.829Z,16.00
2017-05-18T19:29:51.882Z,16.10
2017-05-18T19:32:21.329Z,16.00
2017-05-18T19:34:50.729Z,16.00
2017-05-18T19:37:20.153Z,15.80
2017-05-18T19:39:50.296Z,15.80
2017-05-18T19:42:19.724Z,15.90
2017-05-18T19:44:49.124Z,16.00
2017-05-18T19:47:18.566Z,15.90
2017-05-18T19:49:47.786Z,16.00
2017-05-18T19:52:17.979Z,16.10
2017-05-18T19:54:47.402Z,16.00
2017-05-18T19:57:17.583Z,16.00
2017-05-18T19:59:46.992Z,16.10
2017-05-18T20:02:16.422Z,16.00
2017-05-18T20:04:46.600Z,16.10
2017-05-18T20:07:16.007Z,16.10
2017-05-18T20:09:45.477Z,16.00
2017-05-18T20:12:14.906Z,15.80
2017-05-18T20:14:44.350Z,15.70
2017-05-18T20:17:14.507Z,15.60
2017-05-18T20:19:43.977Z,15.50
2017-05-18T20:22:14.128Z,15.40
2017-05-18T20:24:43.564Z,15.60
2017-05-18T20:27:12.985Z,15.70
2017-05-18T20:29:42.412Z,15.60
2017-05-18T20:32:12.550Z,15.40
2017-05-18T20:34:41.997Z,15.30
2017-05-18T20:37:11.399Z,15.30
2017-05-18T20:39:40.817Z,15.20
2017-05-18T20:42:11.032Z,15.00
2017-05-18T20:44:40.449Z,15.00
2017-05-18T20:47:09.893Z,15.00
2017-05-18T20:49:39.285Z,14.90
2017-05-18T20:52:08.736Z,14.90
2017-05-18T20:54:38.148Z,15.10
2017-05-18T20:57:07.593Z,15.20
2017-05-18T20:59:37.004Z,15.20
2017-05-18T21:02:06.443Z,15.30
2017-05-18T21:04:35.884Z,15.40
2017-05-18T21:07:06.017Z,15.40
2017-05-18T21:09:35.477Z,15.40
2017-05-18T21:12:04.876Z,15.40
2017-05-18T21:14:34.335Z,15.50
2017-05-18T21:17:03.748Z,15.50
2017-05-18T21:19:33.185Z,15.50
2017-05-18T21:22:02.581Z,15.50
2017-05-18T21:24:32.014Z,15.40
2017-05-18T21:27:02.194Z,15.30
2017-05-18T21:29:31.634Z,15.30
2017-05-18T21:32:01.796Z,15.30
2017-05-18T21:34:31.248Z,15.40
2017-05-18T21:37:00.668Z,15.30
2017-05-18T21:39:30.844Z,15.20
2017-05-18T21:42:00.256Z,15.10
2017-05-18T21:44:29.713Z,15.20
2017-05-18T21:46:59.119Z,15.20
2017-05-18T21:49:28.561Z,15.20
2017-05-18T21:51:57.981Z,15.10
2017-05-18T21:54:27.444Z,15.10
2017-05-18T21:56:56.874Z,15.10
2017-05-18T21:59:26.317Z,15.10
2017-05-18T22:01:56.497Z,15.10
2017-05-18T22:04:25.906Z,15.10
2017-05-18T22:06:55.368Z,15.10
2017-05-18T22:09:24.785Z,15.00
2017-05-18T22:11:54.228Z,14.90
2017-05-18T22:14:23.685Z,14.90
2017-05-18T22:16:53.091Z,14.80
2017-05-18T22:19:22.555Z,14.60
2017-05-18T22:21:52.717Z,14.50
2017-05-18T22:24:22.162Z,14.50
2017-05-18T22:26:52.637Z,14.60
2017-05-18T22:29:22.086Z,14.50
2017-05-18T22:31:51.496Z,14.50
2017-05-18T22:34:20.932Z,14.40
2017-05-18T22:36:51.019Z,14.50
2017-05-18T22:39:20.517Z,14.50
2017-05-18T22:41:49.979Z,14.40
2017-05-18T22:44:19.462Z,14.50
2017-05-18T22:46:48.864Z,14.60
2017-05-18T22:49:18.330Z,14.60
2017-05-18T22:51:47.748Z,14.50
2017-05-18T22:54:17.925Z,14.50
2017-05-18T22:56:47.327Z,14.50
2017-05-18T22:59:16.761Z,14.60
2017-05-18T23:01:46.238Z,14.50
2017-05-18T23:04:15.683Z,14.40
2017-05-18T23:06:45.867Z,14.30
2017-05-18T23:09:15.276Z,14.40
2017-05-18T23:11:44.728Z,14.30
2017-05-18T23:14:14.136Z,14.30
2017-05-18T23:16:44.540Z,14.30
2017-05-18T23:19:14.690Z,14.30
2017-05-18T23:21:44.132Z,14.30
2017-05-18T23:24:13.555Z,14.20
2017-05-18T23:26:43.745Z,14.20
2017-05-18T23:29:13.169Z,14.20
2017-05-18T23:31:42.612Z,14.20
2017-05-18T23:34:12.026Z,14.20
2017-05-18T23:36:41.468Z,14.20
2017-05-18T23:39:10.867Z,14.20
2017-05-18T23:41:40.317Z,14.20
2017-05-18T23:44:09.741Z,14.20
2017-05-18T23:46:40.167Z,14.20
2017-05-18T23:49:09.587Z,14.20
2017-05-18T23:51:39.017Z,14.30
2017-05-18T23:54:08.773Z,14.30
2017-05-18T23:56:38.243Z,14.30
2017-05-18T23:59:08.481Z,14.20
